sensor_id;sensor_type;location;lat;lon;timestamp;pressure;altitude;pressure_sealevel;temperature;humidity
7474;BME280;3778;42.572;23.426;2022-07-21T00:01:31;72317.03;;;-146.70;56.12
7474;BME280;3778;42.572;23.426;2022-07-21T00:03:58;72314.97;;;-146.70;55.98
7474;BME280;3778;42.572;23.426;2022-07-21T00:06:25;72310.81;;;-146.70;55.51
7474;BME280;3778;42.572;23.426;2022-07-21T00:08:51;72314.97;;;-146.70;55.78
7474;BME280;3778;42.572;23.426;2022-07-21T00:11:18;72317.03;;;-146.70;55.85
7474;BME280;3778;42.572;23.426;2022-07-21T00:13:45;72317.03;;;-146.70;56.07
7474;BME280;3778;42.572;23.426;2022-07-21T00:16:12;72317.03;;;-146.70;56.16
7474;BME280;3778;42.572;23.426;2022-07-21T00:18:40;72308.75;;;-146.70;55.70
7474;BME280;3778;42.572;23.426;2022-07-21T00:21:07;72300.47;;;-146.70;55.51
7474;BME280;3778;42.572;23.426;2022-07-21T00:23:34;72292.19;;;-146.70;54.89
7474;BME280;3778;42.572;23.426;2022-07-21T00:26:01;72302.53;;;-146.70;55.66
7474;BME280;3778;42.572;23.426;2022-07-21T00:28:27;72298.41;;;-146.70;55.77
7474;BME280;3778;42.572;23.426;2022-07-21T00:30:54;72304.59;;;-146.70;55.68
7474;BME280;3778;42.572;23.426;2022-07-21T00:33:21;72302.53;;;-146.70;55.60
7474;BME280;3778;42.572;23.426;2022-07-21T00:35:49;72308.75;;;-146.70;56.06
7474;BME280;3778;42.572;23.426;2022-07-21T00:38:16;72323.25;;;-146.70;56.42
7474;BME280;3778;42.572;23.426;2022-07-21T00:40:43;72325.34;;;-146.70;56.52
7474;BME280;3778;42.572;23.426;2022-07-21T00:43:10;72327.41;;;-146.70;56.78
7474;BME280;3778;42.572;23.426;2022-07-21T00:45:36;72327.41;;;-146.70;57.16
7474;BME280;3778;42.572;23.426;2022-07-21T00:48:04;72323.25;;;-146.70;57.12
7474;BME280;3778;42.572;23.426;2022-07-21T00:50:31;72327.41;;;-146.70;57.08
7474;BME280;3778;42.572;23.426;2022-07-21T00:53:00;72325.34;;;-146.70;56.50
7474;BME280;3778;42.572;23.426;2022-07-21T00:55:26;72325.34;;;-146.70;56.72
7474;BME280;3778;42.572;23.426;2022-07-21T00:57:54;72331.56;;;-146.70;56.67
7474;BME280;3778;42.572;23.426;2022-07-21T01:00:22;72333.63;;;-146.70;56.65
7474;BME280;3778;42.572;23.426;2022-07-21T01:02:50;72343.97;;;-146.70;57.13
7474;BME280;3778;42.572;23.426;2022-07-21T01:05:17;72354.34;;;-146.70;57.63
7474;BME280;3778;42.572;23.426;2022-07-21T01:07:46;72358.50;;;-146.70;57.61
7474;BME280;3778;42.572;23.426;2022-07-21T01:10:16;72358.50;;;-146.70;58.06
7474;BME280;3778;42.572;23.426;2022-07-21T01:12:43;72358.50;;;-146.70;58.08
7474;BME280;3778;42.572;23.426;2022-07-21T01:15:11;72373.00;;;-146.70;58.25
7474;BME280;3778;42.572;23.426;2022-07-21T01:17:40;72370.94;;;-146.70;58.21
7474;BME280;3778;42.572;23.426;2022-07-21T01:20:09;72370.94;;;-146.70;58.30
7474;BME280;3778;42.572;23.426;2022-07-21T01:22:40;72360.56;;;-146.70;58.45
7474;BME280;3778;42.572;23.426;2022-07-21T01:25:08;72368.84;;;-146.70;58.39
7474;BME280;3778;42.572;23.426;2022-07-21T01:27:35;72368.84;;;-146.70;58.48
7474;BME280;3778;42.572;23.426;2022-07-21T01:30:03;72379.22;;;-146.70;58.94
7474;BME280;3778;42.572;23.426;2022-07-21T01:32:32;72387.50;;;-146.70;59.47
7474;BME280;3778;42.572;23.426;2022-07-21T01:34:59;72391.66;;;-146.70;60.03
7474;BME280;3778;42.572;23.426;2022-07-21T01:37:28;72391.66;;;-146.70;60.19
7474;BME280;3778;42.572;23.426;2022-07-21T01:39:57;72397.88;;;-146.70;60.28
7474;BME280;3778;42.572;23.426;2022-07-21T01:42:41;72385.44;;;-146.70;59.69
7474;BME280;3778;42.572;23.426;2022-07-21T01:45:08;72393.72;;;-146.70;59.76
7474;BME280;3778;42.572;23.426;2022-07-21T01:47:36;72397.88;;;-146.70;60.14
7474;BME280;3778;42.572;23.426;2022-07-21T01:50:03;72399.94;;;-146.70;60.36
7474;BME280;3778;42.572;23.426;2022-07-21T01:52:30;72404.09;;;-146.70;60.78
7474;BME280;3778;42.572;23.426;2022-07-21T01:54:58;72412.38;;;-146.70;60.91
7474;BME280;3778;42.572;23.426;2022-07-21T01:57:25;72408.22;;;-146.70;61.22
7474;BME280;3778;42.572;23.426;2022-07-21T01:59:52;72408.22;;;-146.70;61.22
7474;BME280;3778;42.572;23.426;2022-07-21T02:02:18;72387.50;;;-146.70;60.47
7474;BME280;3778;42.572;23.426;2022-07-21T02:04:46;72385.44;;;-146.70;60.30
7474;BME280;3778;42.572;23.426;2022-07-21T02:07:14;72397.88;;;-146.70;60.37
7474;BME280;3778;42.572;23.426;2022-07-21T02:09:41;72399.94;;;-146.70;60.45
7474;BME280;3778;42.572;23.426;2022-07-21T02:12:09;72391.66;;;-146.70;60.49
7474;BME280;3778;42.572;23.426;2022-07-21T02:14:36;72399.94;;;-146.70;60.82
7474;BME280;3778;42.572;23.426;2022-07-21T02:17:03;72402.00;;;-146.70;61.10
7474;BME280;3778;42.572;23.426;2022-07-21T02:19:30;72399.94;;;-146.70;61.10
7474;BME280;3778;42.572;23.426;2022-07-21T02:21:56;72393.72;;;-146.70;60.93
7474;BME280;3778;42.572;23.426;2022-07-21T02:24:23;72399.94;;;-146.70;61.15
7474;BME280;3778;42.572;23.426;2022-07-21T02:26:50;72402.00;;;-146.70;61.22
7474;BME280;3778;42.572;23.426;2022-07-21T02:29:18;72395.78;;;-146.70;61.19
7474;BME280;3778;42.572;23.426;2022-07-21T02:31:45;72399.94;;;-146.70;61.30
7474;BME280;3778;42.572;23.426;2022-07-21T02:34:12;72399.94;;;-146.70;61.27
7474;BME280;3778;42.572;23.426;2022-07-21T02:36:38;72391.66;;;-146.70;60.99
7474;BME280;3778;42.572;23.426;2022-07-21T02:39:06;72397.88;;;-146.70;61.05
7474;BME280;3778;42.572;23.426;2022-07-21T02:41:32;72389.59;;;-146.70;60.83
7474;BME280;3778;42.572;23.426;2022-07-21T02:43:59;72397.88;;;-146.70;60.89
7474;BME280;3778;42.572;23.426;2022-07-21T02:46:27;72406.16;;;-146.70;61.30
7474;BME280;3778;42.572;23.426;2022-07-21T02:48:54;72402.00;;;-146.70;61.19
7474;BME280;3778;42.572;23.426;2022-07-21T02:51:21;72414.44;;;-146.70;61.22
7474;BME280;3778;42.572;23.426;2022-07-21T02:53:47;72416.53;;;-146.70;61.45
7474;BME280;3778;42.572;23.426;2022-07-21T02:56:15;72420.66;;;-146.70;61.82
7474;BME280;3778;42.572;23.426;2022-07-21T02:58:42;72420.66;;;-146.70;62.13
7474;BME280;3778;42.572;23.426;2022-07-21T03:01:08;72426.88;;;-146.70;62.28
7474;BME280;3778;42.572;23.426;2022-07-21T03:03:38;72428.97;;;-146.70;62.90
7474;BME280;3778;42.572;23.426;2022-07-21T03:06:05;72439.31;;;-146.70;62.84
7474;BME280;3778;42.572;23.426;2022-07-21T03:08:33;72443.47;;;-146.70;62.68
7474;BME280;3778;42.572;23.426;2022-07-21T03:11:00;72443.47;;;-146.70;62.58
7474;BME280;3778;42.572;23.426;2022-07-21T03:13:28;72447.63;;;-146.70;62.79
7474;BME280;3778;42.572;23.426;2022-07-21T03:15:55;72445.53;;;-146.70;62.67
7474;BME280;3778;42.572;23.426;2022-07-21T03:18:22;72445.53;;;-146.70;62.85
7474;BME280;3778;42.572;23.426;2022-07-21T03:20:50;72443.47;;;-146.70;62.98
7474;BME280;3778;42.572;23.426;2022-07-21T03:23:17;72441.41;;;-146.70;62.86
7474;BME280;3778;42.572;23.426;2022-07-21T03:25:44;72449.69;;;-146.70;63.07
7474;BME280;3778;42.572;23.426;2022-07-21T03:28:11;72443.47;;;-146.70;63.01
7474;BME280;3778;42.572;23.426;2022-07-21T03:30:38;72437.25;;;-146.70;63.07
7474;BME280;3778;42.572;23.426;2022-07-21T03:33:06;72447.63;;;-146.70;63.21
7474;BME280;3778;42.572;23.426;2022-07-21T03:35:33;72451.75;;;-146.70;63.48
7474;BME280;3778;42.572;23.426;2022-07-21T03:38:02;72447.63;;;-146.70;63.23
7474;BME280;3778;42.572;23.426;2022-07-21T03:40:31;72451.75;;;-146.70;63.42
7474;BME280;3778;42.572;23.426;2022-07-21T03:43:00;72449.69;;;-146.70;63.43
7474;BME280;3778;42.572;23.426;2022-07-21T03:45:28;72447.63;;;-146.70;63.37
7474;BME280;3778;42.572;23.426;2022-07-21T03:47:56;72445.53;;;-146.70;63.37
7474;BME280;3778;42.572;23.426;2022-07-21T03:50:24;72455.91;;;-146.70;63.56
7474;BME280;3778;42.572;23.426;2022-07-21T03:52:51;72445.53;;;-146.70;63.41
7474;BME280;3778;42.572;23.426;2022-07-21T03:55:19;72443.47;;;-146.70;63.34
7474;BME280;3778;42.572;23.426;2022-07-21T03:57:48;72439.31;;;-146.70;63.46
7474;BME280;3778;42.572;23.426;2022-07-21T04:00:16;72449.69;;;-146.70;63.47
7474;BME280;3778;42.572;23.426;2022-07-21T04:02:44;72449.69;;;-146.70;63.52
7474;BME280;3778;42.572;23.426;2022-07-21T04:05:12;72445.53;;;-146.70;63.12
7474;BME280;3778;42.572;23.426;2022-07-21T04:07:40;72435.19;;;-146.70;63.13
7474;BME280;3778;42.572;23.426;2022-07-21T04:10:08;72435.19;;;-146.70;63.35
7474;BME280;3778;42.572;23.426;2022-07-21T04:12:36;72424.81;;;-146.70;63.18
7474;BME280;3778;42.572;23.426;2022-07-21T04:15:04;72410.31;;;-146.70;62.71
7474;BME280;3778;42.572;23.426;2022-07-21T04:17:32;72395.78;;;-146.70;62.42
7474;BME280;3778;42.572;23.426;2022-07-21T04:19:59;72397.88;;;-146.70;62.43
7474;BME280;3778;42.572;23.426;2022-07-21T04:22:26;72379.22;;;-146.70;62.09
7474;BME280;3778;42.572;23.426;2022-07-21T04:24:53;72377.16;;;-146.70;61.85
7474;BME280;3778;42.572;23.426;2022-07-21T04:27:19;72368.84;;;-146.70;61.88
7474;BME280;3778;42.572;23.426;2022-07-21T04:29:47;72358.50;;;-146.70;61.58
7474;BME280;3778;42.572;23.426;2022-07-21T04:32:14;72354.34;;;-146.70;61.43
7474;BME280;3778;42.572;23.426;2022-07-21T04:34:41;72341.91;;;-146.70;61.29
7474;BME280;3778;42.572;23.426;2022-07-21T04:37:08;72333.63;;;-146.70;61.27
7474;BME280;3778;42.572;23.426;2022-07-21T04:39:34;72327.41;;;-146.70;61.08
7474;BME280;3778;42.572;23.426;2022-07-21T04:42:01;72317.03;;;-146.70;60.91
7474;BME280;3778;42.572;23.426;2022-07-21T04:44:28;72306.69;;;-146.70;60.64
7474;BME280;3778;42.572;23.426;2022-07-21T04:46:57;72300.47;;;-146.70;60.43
7474;BME280;3778;42.572;23.426;2022-07-21T04:49:23;72292.19;;;-146.70;60.37
7474;BME280;3778;42.572;23.426;2022-07-21T04:51:50;72296.31;;;-146.70;60.46
7474;BME280;3778;42.572;23.426;2022-07-21T04:54:17;72288.03;;;-146.70;60.45
7474;BME280;3778;42.572;23.426;2022-07-21T04:56:44;72283.88;;;-146.70;60.40
7474;BME280;3778;42.572;23.426;2022-07-21T04:59:11;72275.59;;;-146.70;60.31
7474;BME280;3778;42.572;23.426;2022-07-21T05:01:38;72263.16;;;-146.70;60.25
7474;BME280;3778;42.572;23.426;2022-07-21T05:04:06;72248.66;;;-146.70;59.71
7474;BME280;3778;42.572;23.426;2022-07-21T05:06:34;72244.50;;;-146.70;59.69
7474;BME280;3778;42.572;23.426;2022-07-21T05:09:01;72227.94;;;-146.70;59.42
7474;BME280;3778;42.572;23.426;2022-07-21T05:11:28;72213.44;;;-146.70;59.17
7474;BME280;3778;42.572;23.426;2022-07-21T05:13:55;72205.13;;;-146.70;59.02
7474;BME280;3778;42.572;23.426;2022-07-21T05:16:22;72186.47;;;-146.70;58.63
7474;BME280;3778;42.572;23.426;2022-07-21T05:18:49;72182.34;;;-146.70;58.69
7474;BME280;3778;42.572;23.426;2022-07-21T05:21:17;72174.06;;;-146.70;58.58
7474;BME280;3778;42.572;23.426;2022-07-21T05:23:44;72167.84;;;-146.70;58.44
7474;BME280;3778;42.572;23.426;2022-07-21T05:26:11;72167.84;;;-146.70;58.35
7474;BME280;3778;42.572;23.426;2022-07-21T05:28:39;72159.53;;;-146.70;58.49
7474;BME280;3778;42.572;23.426;2022-07-21T05:31:07;72138.81;;;-146.70;58.23
7474;BME280;3778;42.572;23.426;2022-07-21T05:33:34;72134.69;;;-146.70;57.86
7474;BME280;3778;42.572;23.426;2022-07-21T05:36:01;72107.75;;;-146.70;57.70
7474;BME280;3778;42.572;23.426;2022-07-21T05:38:30;72084.94;;;-146.70;57.47
7474;BME280;3778;42.572;23.426;2022-07-21T05:40:57;72074.56;;;-146.70;56.48
7474;BME280;3778;42.572;23.426;2022-07-21T05:43:28;72062.16;;;-146.70;56.50
7474;BME280;3778;42.572;23.426;2022-07-21T05:45:55;72045.56;;;-146.70;56.18
7474;BME280;3778;42.572;23.426;2022-07-21T05:48:22;72035.19;;;-146.70;56.07
7474;BME280;3778;42.572;23.426;2022-07-21T05:50:49;72022.78;;;-146.70;55.77
7474;BME280;3778;42.572;23.426;2022-07-21T05:53:15;72010.34;;;-146.70;55.60
7474;BME280;3778;42.572;23.426;2022-07-21T05:55:44;71997.91;;;-146.70;55.41
7474;BME280;3778;42.572;23.426;2022-07-21T05:58:10;71981.31;;;-146.70;55.47
7474;BME280;3778;42.572;23.426;2022-07-21T06:00:37;71970.97;;;-146.70;55.32
7474;BME280;3778;42.572;23.426;2022-07-21T06:03:04;71952.31;;;-146.70;55.07
7474;BME280;3778;42.572;23.426;2022-07-21T06:05:31;71941.94;;;-146.70;54.57
7474;BME280;3778;42.572;23.426;2022-07-21T06:07:58;71921.22;;;-146.70;54.57
7474;BME280;3778;42.572;23.426;2022-07-21T06:10:26;71912.94;;;-146.70;54.39
7474;BME280;3778;42.572;23.426;2022-07-21T06:12:54;71894.28;;;-146.70;54.26
7474;BME280;3778;42.572;23.426;2022-07-21T06:15:21;71883.94;;;-146.70;53.63
7474;BME280;3778;42.572;23.426;2022-07-21T06:17:48;71865.28;;;-146.70;54.14
7474;BME280;3778;42.572;23.426;2022-07-21T06:20:15;71857.00;;;-146.70;54.06
7474;BME280;3778;42.572;23.426;2022-07-21T06:22:42;71838.34;;;-146.70;54.31
7474;BME280;3778;42.572;23.426;2022-07-21T06:25:09;71827.97;;;-146.70;53.74
7474;BME280;3778;42.572;23.426;2022-07-21T06:27:35;71811.41;;;-146.70;54.18
7474;BME280;3778;42.572;23.426;2022-07-21T06:30:05;71798.97;;;-146.70;53.72
7474;BME280;3778;42.572;23.426;2022-07-21T06:32:32;71790.69;;;-146.70;52.70
7474;BME280;3778;42.572;23.426;2022-07-21T06:34:59;71786.53;;;-146.70;52.68
7474;BME280;3778;42.572;23.426;2022-07-21T06:37:26;71763.75;;;-146.70;52.61
7474;BME280;3778;42.572;23.426;2022-07-21T06:39:52;71747.16;;;-146.70;53.14
7474;BME280;3778;42.572;23.426;2022-07-21T06:42:19;71732.66;;;-146.70;51.65
7474;BME280;3778;42.572;23.426;2022-07-21T06:44:46;71697.44;;;-146.70;53.23
7474;BME280;3778;42.572;23.426;2022-07-21T06:47:14;71674.66;;;-146.70;52.25
7474;BME280;3778;42.572;23.426;2022-07-21T06:49:41;71651.84;;;-146.70;50.13
7474;BME280;3778;42.572;23.426;2022-07-21T06:52:08;71633.19;;;-146.70;47.00
7474;BME280;3778;42.572;23.426;2022-07-21T06:54:34;71622.84;;;-146.70;45.06
7474;BME280;3778;42.572;23.426;2022-07-21T06:57:01;71612.47;;;-146.70;46.40
7474;BME280;3778;42.572;23.426;2022-07-21T06:59:28;71581.41;;;-146.70;45.76
7474;BME280;3778;42.572;23.426;2022-07-21T07:01:55;71558.59;;;-146.70;44.99
7474;BME280;3778;42.572;23.426;2022-07-21T07:04:23;71544.09;;;-146.70;45.72
7474;BME280;3778;42.572;23.426;2022-07-21T07:06:50;71537.88;;;-146.70;45.07
7474;BME280;3778;42.572;23.426;2022-07-21T07:09:19;71521.31;;;-146.70;44.23
7474;BME280;3778;42.572;23.426;2022-07-21T07:11:46;71508.88;;;-146.70;44.53
7474;BME280;3778;42.572;23.426;2022-07-21T07:14:13;71498.53;;;-146.70;45.79
7474;BME280;3778;42.572;23.426;2022-07-21T07:16:40;71492.31;;;-146.70;44.54
7474;BME280;3778;42.572;23.426;2022-07-21T07:19:06;71481.94;;;-146.70;45.23
7474;BME280;3778;42.572;23.426;2022-07-21T07:21:35;71475.72;;;-146.70;43.92
7474;BME280;3778;42.572;23.426;2022-07-21T07:24:01;71463.28;;;-146.70;43.57
7474;BME280;3778;42.572;23.426;2022-07-21T07:26:28;71455.00;;;-146.70;42.88
7474;BME280;3778;42.572;23.426;2022-07-21T07:28:55;71434.28;;;-146.70;43.00
7474;BME280;3778;42.572;23.426;2022-07-21T07:31:22;71430.16;;;-146.70;44.01
7474;BME280;3778;42.572;23.426;2022-07-21T07:33:49;71409.41;;;-146.70;42.90
7474;BME280;3778;42.572;23.426;2022-07-21T07:36:15;71411.50;;;-146.70;41.30
7474;BME280;3778;42.572;23.426;2022-07-21T07:38:44;71411.50;;;-146.70;41.71
7474;BME280;3778;42.572;23.426;2022-07-21T07:41:11;71401.13;;;-146.70;42.09
7474;BME280;3778;42.572;23.426;2022-07-21T07:43:38;71392.84;;;-146.70;42.55
7474;BME280;3778;42.572;23.426;2022-07-21T07:46:05;71376.28;;;-146.70;42.05
7474;BME280;3778;42.572;23.426;2022-07-21T07:48:32;71376.28;;;-146.70;41.22
7474;BME280;3778;42.572;23.426;2022-07-21T07:51:01;71363.84;;;-146.70;41.33
7474;BME280;3778;42.572;23.426;2022-07-21T07:53:28;71349.34;;;-146.70;41.02
7474;BME280;3778;42.572;23.426;2022-07-21T07:55:56;71334.84;;;-146.70;41.81
7474;BME280;3778;42.572;23.426;2022-07-21T07:58:23;71330.69;;;-146.70;41.21
7474;BME280;3778;42.572;23.426;2022-07-21T08:00:50;71320.34;;;-146.70;40.57
7474;BME280;3778;42.572;23.426;2022-07-21T08:03:17;71312.03;;;-146.70;40.46
7474;BME280;3778;42.572;23.426;2022-07-21T08:05:44;71307.91;;;-146.70;40.87
7474;BME280;3778;42.572;23.426;2022-07-21T08:08:11;71301.69;;;-146.70;42.13
7474;BME280;3778;42.572;23.426;2022-07-21T08:10:37;71291.31;;;-146.70;40.33
7474;BME280;3778;42.572;23.426;2022-07-21T08:13:06;71268.53;;;-146.70;40.52
7474;BME280;3778;42.572;23.426;2022-07-21T08:15:34;71256.09;;;-146.70;40.71
7474;BME280;3778;42.572;23.426;2022-07-21T08:18:00;71243.66;;;-146.70;39.72
7474;BME280;3778;42.572;23.426;2022-07-21T08:20:27;71233.31;;;-146.70;39.99
7474;BME280;3778;42.572;23.426;2022-07-21T08:22:55;71231.25;;;-146.70;40.56
7474;BME280;3778;42.572;23.426;2022-07-21T08:25:21;71210.53;;;-146.70;39.99
7474;BME280;3778;42.572;23.426;2022-07-21T08:27:48;71183.59;;;-146.70;39.99
7474;BME280;3778;42.572;23.426;2022-07-21T08:30:16;71175.31;;;-146.70;38.93
7474;BME280;3778;42.572;23.426;2022-07-21T08:32:43;71156.66;;;-146.70;39.57
7474;BME280;3778;42.572;23.426;2022-07-21T08:35:10;71148.38;;;-146.70;38.21
7474;BME280;3778;42.572;23.426;2022-07-21T08:37:37;71138.00;;;-146.70;40.53
7474;BME280;3778;42.572;23.426;2022-07-21T08:40:09;71123.50;;;-146.70;38.64
7474;BME280;3778;42.572;23.426;2022-07-21T08:42:37;71125.56;;;-146.70;37.66
7474;BME280;3778;42.572;23.426;2022-07-21T08:45:05;71111.06;;;-146.70;39.25
7474;BME280;3778;42.572;23.426;2022-07-21T08:47:35;71094.50;;;-146.70;39.34
7474;BME280;3778;42.572;23.426;2022-07-21T08:50:02;71044.78;;;-146.70;36.79
7474;BME280;3778;42.572;23.426;2022-07-21T08:52:29;71032.34;;;-146.70;36.57
7474;BME280;3778;42.572;23.426;2022-07-21T08:54:56;71038.56;;;-146.70;36.77
7474;BME280;3778;42.572;23.426;2022-07-21T08:57:23;71019.91;;;-146.70;37.39
7474;BME280;3778;42.572;23.426;2022-07-21T08:59:50;71011.63;;;-146.70;36.04
7474;BME280;3778;42.572;23.426;2022-07-21T09:02:25;70995.06;;;-146.70;34.79
7474;BME280;3778;42.572;23.426;2022-07-21T09:04:54;70999.19;;;-146.70;35.32
7474;BME280;3778;42.572;23.426;2022-07-21T09:07:21;70976.41;;;-146.70;35.90
7474;BME280;3778;42.572;23.426;2022-07-21T09:09:55;70974.34;;;-146.70;35.26
7474;BME280;3778;42.572;23.426;2022-07-21T09:12:22;70974.34;;;-146.70;35.68
7474;BME280;3778;42.572;23.426;2022-07-21T09:14:49;70959.84;;;-146.70;35.03
7474;BME280;3778;42.572;23.426;2022-07-21T09:17:17;70947.41;;;-146.70;35.53
7474;BME280;3778;42.572;23.426;2022-07-21T09:19:46;70932.91;;;-146.70;35.32
7474;BME280;3778;42.572;23.426;2022-07-21T09:22:17;70932.91;;;-146.70;35.50
7474;BME280;3778;42.572;23.426;2022-07-21T09:24:49;70928.75;;;-146.70;35.08
7474;BME280;3778;42.572;23.426;2022-07-21T09:27:17;70920.47;;;-146.70;34.01
7474;BME280;3778;42.572;23.426;2022-07-21T09:29:46;70920.47;;;-146.70;34.08
7474;BME280;3778;42.572;23.426;2022-07-21T09:32:18;70914.25;;;-146.70;33.85
7474;BME280;3778;42.572;23.426;2022-07-21T09:34:46;70897.69;;;-146.70;33.80
7474;BME280;3778;42.572;23.426;2022-07-21T09:37:15;70889.41;;;-146.70;33.93
7474;BME280;3778;42.572;23.426;2022-07-21T09:39:43;70885.25;;;-146.70;33.45
7474;BME280;3778;42.572;23.426;2022-07-21T09:42:18;70903.91;;;-146.70;33.27
7474;BME280;3778;42.572;23.426;2022-07-21T09:44:47;70876.97;;;-146.70;32.78
7474;BME280;3778;42.572;23.426;2022-07-21T09:47:17;70858.31;;;-146.70;33.03
7474;BME280;3778;42.572;23.426;2022-07-21T09:49:44;70860.38;;;-146.70;33.50
7474;BME280;3778;42.572;23.426;2022-07-21T09:52:20;70854.19;;;-146.70;33.90
7474;BME280;3778;42.572;23.426;2022-07-21T09:54:47;70843.81;;;-146.70;33.63
7474;BME280;3778;42.572;23.426;2022-07-21T09:57:15;70879.03;;;-146.70;32.23
7474;BME280;3778;42.572;23.426;2022-07-21T09:59:43;70881.09;;;-146.70;33.34
7474;BME280;3778;42.572;23.426;2022-07-21T10:02:15;70864.53;;;-146.70;32.88
7474;BME280;3778;42.572;23.426;2022-07-21T10:04:43;70874.91;;;-146.70;32.92
7474;BME280;3778;42.572;23.426;2022-07-21T10:07:10;70876.97;;;-146.70;32.93
7474;BME280;3778;42.572;23.426;2022-07-21T10:09:39;70852.09;;;-146.70;33.72
7474;BME280;3778;42.572;23.426;2022-07-21T10:12:07;70825.19;;;-146.70;33.35
7474;BME280;3778;42.572;23.426;2022-07-21T10:14:34;70845.88;;;-146.70;31.61
7474;BME280;3778;42.572;23.426;2022-07-21T10:17:01;70835.53;;;-146.70;32.82
7474;BME280;3778;42.572;23.426;2022-07-21T10:19:32;70800.31;;;-146.70;32.09
7474;BME280;3778;42.572;23.426;2022-07-21T10:22:06;70796.16;;;-146.70;32.26
7474;BME280;3778;42.572;23.426;2022-07-21T10:24:35;70777.53;;;-146.70;32.63
7474;BME280;3778;42.572;23.426;2022-07-21T10:27:05;70767.16;;;-146.70;31.60
7474;BME280;3778;42.572;23.426;2022-07-21T10:29:51;70760.94;;;-146.70;31.62
7474;BME280;3778;42.572;23.426;2022-07-21T10:32:20;70767.16;;;-146.70;31.59
7474;BME280;3778;42.572;23.426;2022-07-21T10:34:47;70781.66;;;-146.70;32.62
7474;BME280;3778;42.572;23.426;2022-07-21T10:37:45;70783.75;;;-146.70;31.83
7474;BME280;3778;42.572;23.426;2022-07-21T10:40:40;70763.03;;;-146.70;31.67
7474;BME280;3778;42.572;23.426;2022-07-21T10:43:39;70783.75;;;-146.70;32.00
7474;BME280;3778;42.572;23.426;2022-07-21T10:46:37;70783.75;;;-146.70;31.80
7474;BME280;3778;42.572;23.426;2022-07-21T10:49:06;70787.88;;;-146.70;31.10
7474;BME280;3778;42.572;23.426;2022-07-21T10:51:34;70760.94;;;-146.70;32.63
7474;BME280;3778;42.572;23.426;2022-07-21T10:54:32;70713.31;;;-146.70;31.60
7474;BME280;3778;42.572;23.426;2022-07-21T10:57:25;70715.38;;;-146.70;30.83
7474;BME280;3778;42.572;23.426;2022-07-21T11:00:24;70727.81;;;-146.70;30.39
7474;BME280;3778;42.572;23.426;2022-07-21T11:02:54;70727.81;;;-146.70;31.49
7474;BME280;3778;42.572;23.426;2022-07-21T11:05:22;70694.66;;;-146.70;31.21
7474;BME280;3778;42.572;23.426;2022-07-21T11:08:10;70713.31;;;-146.70;29.51
7474;BME280;3778;42.572;23.426;2022-07-21T11:10:38;70709.16;;;-146.70;30.59
7474;BME280;3778;42.572;23.426;2022-07-21T11:13:05;70657.38;;;-146.70;30.48
7474;BME280;3778;42.572;23.426;2022-07-21T11:15:56;70609.72;;;-146.70;31.24
7474;BME280;3778;42.572;23.426;2022-07-21T11:18:26;70636.66;;;-146.70;30.03
7474;BME280;3778;42.572;23.426;2022-07-21T11:21:06;70626.31;;;-146.70;30.54
7474;BME280;3778;42.572;23.426;2022-07-21T11:23:37;70611.81;;;-146.70;30.97
7474;BME280;3778;42.572;23.426;2022-07-21T11:26:06;70593.16;;;-146.70;30.49
7474;BME280;3778;42.572;23.426;2022-07-21T11:28:33;70591.09;;;-146.70;30.04
7474;BME280;3778;42.572;23.426;2022-07-21T11:31:10;70636.66;;;-146.70;30.80
7474;BME280;3778;42.572;23.426;2022-07-21T11:33:38;70622.16;;;-146.70;30.30
7474;BME280;3778;42.572;23.426;2022-07-21T11:36:05;70603.50;;;-146.70;29.55
7474;BME280;3778;42.572;23.426;2022-07-21T11:38:32;70634.59;;;-146.70;30.48
7474;BME280;3778;42.572;23.426;2022-07-21T11:41:16;70609.72;;;-146.70;29.99
7474;BME280;3778;42.572;23.426;2022-07-21T11:43:45;70589.00;;;-146.70;30.37
7474;BME280;3778;42.572;23.426;2022-07-21T11:46:14;70570.38;;;-146.70;29.13
7474;BME280;3778;42.572;23.426;2022-07-21T11:48:40;70562.09;;;-146.70;29.23
7474;BME280;3778;42.572;23.426;2022-07-21T11:51:07;70547.59;;;-146.70;29.31
7474;BME280;3778;42.572;23.426;2022-07-21T11:53:34;70568.28;;;-146.70;29.32
7474;BME280;3778;42.572;23.426;2022-07-21T11:56:01;70572.44;;;-146.70;29.72
7474;BME280;3778;42.572;23.426;2022-07-21T11:58:38;70551.72;;;-146.70;29.70
7474;BME280;3778;42.572;23.426;2022-07-21T12:01:07;70564.16;;;-146.70;29.63
7474;BME280;3778;42.572;23.426;2022-07-21T12:03:46;70560.00;;;-146.70;30.66
7474;BME280;3778;42.572;23.426;2022-07-21T12:06:13;70528.94;;;-146.70;29.23
7474;BME280;3778;42.572;23.426;2022-07-21T12:08:40;70537.22;;;-146.70;29.04
7474;BME280;3778;42.572;23.426;2022-07-21T12:11:08;70543.44;;;-146.70;28.91
7474;BME280;3778;42.572;23.426;2022-07-21T12:13:54;70551.72;;;-146.70;29.51
7474;BME280;3778;42.572;23.426;2022-07-21T12:16:21;70531.00;;;-146.70;28.41
7474;BME280;3778;42.572;23.426;2022-07-21T12:19:08;70535.16;;;-146.70;29.96
7474;BME280;3778;42.572;23.426;2022-07-21T12:21:44;70514.44;;;-146.70;28.94
7474;BME280;3778;42.572;23.426;2022-07-21T12:24:11;70497.88;;;-146.70;29.04
7474;BME280;3778;42.572;23.426;2022-07-21T12:26:38;70477.16;;;-146.70;29.96
7474;BME280;3778;42.572;23.426;2022-07-21T12:29:05;70477.16;;;-146.70;29.17
7474;BME280;3778;42.572;23.426;2022-07-21T12:31:33;70485.44;;;-146.70;29.31
7474;BME280;3778;42.572;23.426;2022-07-21T12:34:12;70458.50;;;-146.70;29.33
7474;BME280;3778;42.572;23.426;2022-07-21T12:36:40;70435.72;;;-146.70;28.87
7474;BME280;3778;42.572;23.426;2022-07-21T12:39:19;70412.94;;;-146.70;29.13
7474;BME280;3778;42.572;23.426;2022-07-21T12:42:04;70402.56;;;-146.70;29.06
7474;BME280;3778;42.572;23.426;2022-07-21T12:44:32;70417.06;;;-146.70;28.99
7474;BME280;3778;42.572;23.426;2022-07-21T12:47:13;70406.72;;;-146.70;30.08
7474;BME280;3778;42.572;23.426;2022-07-21T12:50:00;70386.00;;;-146.70;29.34
7474;BME280;3778;42.572;23.426;2022-07-21T12:52:28;70404.66;;;-146.70;29.01
7474;BME280;3778;42.572;23.426;2022-07-21T12:54:56;70417.06;;;-146.70;29.17
7474;BME280;3778;42.572;23.426;2022-07-21T12:57:26;70410.88;;;-146.70;28.24
7474;BME280;3778;42.572;23.426;2022-07-21T12:59:55;70406.72;;;-146.70;29.02